Map

Track Data

SID SEASON NUMBER BASIN SUBBASIN NAME ISO_TIME NATURE LAT LON WMO_WIND WMO_PRES WMO_AGENCY TRACK_TYPE DIST2LAND LANDFALL IFLAG USA_AGENCY USA_ATCF_ID USA_LAT USA_LON USA_RECORD USA_STATUS USA_WIND USA_PRES USA_SSHS USA_R34_NE USA_R34_SE USA_R34_SW USA_R34_NW USA_R50_NE USA_R50_SE USA_R50_SW USA_R50_NW USA_R64_NE USA_R64_SE USA_R64_SW USA_R64_NW USA_POCI USA_ROCI USA_RMW USA_EYE TOKYO_LAT TOKYO_LON TOKYO_GRADE TOKYO_WIND TOKYO_PRES TOKYO_R50_DIR TOKYO_R50_LONG TOKYO_R50_SHORT TOKYO_R30_DIR TOKYO_R30_LONG TOKYO_R30_SHORT TOKYO_LAND CMA_LAT CMA_LON CMA_CAT CMA_WIND CMA_PRES HKO_LAT HKO_LON HKO_CAT HKO_WIND HKO_PRES NEWDELHI_LAT NEWDELHI_LON NEWDELHI_GRADE NEWDELHI_WIND NEWDELHI_PRES NEWDELHI_CI NEWDELHI_DP NEWDELHI_POCI REUNION_LAT REUNION_LON REUNION_TYPE REUNION_WIND REUNION_PRES REUNION_TNUM REUNION_CI REUNION_RMW REUNION_R34_NE REUNION_R34_SE REUNION_R34_SW REUNION_R34_NW REUNION_R50_NE REUNION_R50_SE REUNION_R50_SW REUNION_R50_NW REUNION_R64_NE REUNION_R64_SE REUNION_R64_SW REUNION_R64_NW BOM_LAT BOM_LON BOM_TYPE BOM_WIND BOM_PRES BOM_TNUM BOM_CI BOM_RMW BOM_R34_NE BOM_R34_SE BOM_R34_SW BOM_R34_NW BOM_R50_NE BOM_R50_SE BOM_R50_SW BOM_R50_NW BOM_R64_NE BOM_R64_SE BOM_R64_SW BOM_R64_NW BOM_ROCI BOM_POCI BOM_EYE BOM_POS_METHOD BOM_PRES_METHOD NADI_LAT NADI_LON NADI_CAT NADI_WIND NADI_PRES WELLINGTON_LAT WELLINGTON_LON WELLINGTON_WIND WELLINGTON_PRES DS824_LAT DS824_LON DS824_STAGE DS824_WIND DS824_PRES TD9636_LAT TD9636_LON TD9636_STAGE TD9636_WIND TD9636_PRES TD9635_LAT TD9635_LON TD9635_WIND TD9635_PRES TD9635_ROCI NEUMANN_LAT NEUMANN_LON NEUMANN_CLASS NEUMANN_WIND NEUMANN_PRES MLC_LAT MLC_LON MLC_CLASS MLC_WIND MLC_PRES USA_GUST BOM_GUST BOM_GUST_PER REUNION_GUST REUNION_GUST_PER USA_SEAHGT USA_SEARAD_NE USA_SEARAD_SE USA_SEARAD_SW USA_SEARAD_NW STORM_SPEED STORM_DIR
1960112S09129 1960 19 SI WA NOT_NAMED 1960-04-20 23:00:00 NR -8.90000 129.000 main 195 195 __________O___ -1 -8.90000 129.000 1 9 217
1960112S09129 1960 19 SI WA NOT_NAMED 1960-04-20 23:30:00 NR -8.96355 128.969 980 bom main 198 188 ______O___P___ -1 -9.00000 129.000 980 4 -8.94532 128.953 1 8 210
1960112S09129 1960 19 SI WA NOT_NAMED 1960-04-21 00:00:00 TS -9.00827 128.928 main 188 178 O_____P__OP___ jtwc_sh SH231960 -9.00000 128.900 -1 -9.04712 128.952 -9.00000 129.000 TC 60 980 -8.99064 128.906 1 8 226
1960112S09129 1960 19 SI WA NOT_NAMED 1960-04-21 03:00:00 TS -9.27299 128.637 main 174 172 P_____P__PP___ SH231960 -9.23757 128.590 -1 -9.32895 128.665 -9.28001 128.717 TC -9.26292 128.624 1 8 227
1960112S09129 1960 19 SI WA NOT_NAMED 1960-04-21 06:00:00 TS -9.54391 128.354 main 172 172 O_____P__PP___ jtwc_sh SH231960 -9.50000 128.300 -1 -9.60710 128.381 -9.55705 128.436 TC -9.53672 128.346 1 8 225
1960112S09129 1960 19 SI WA NOT_NAMED 1960-04-21 09:00:00 TS -9.82402 128.085 main 172 172 P_____P__PP___ SH231960 -9.79996 128.042 -1 -9.87854 128.105 -9.82829 128.162 TC -9.81335 128.075 1 8 223
1960112S09129 1960 19 SI WA NOT_NAMED 1960-04-21 11:00:00 TS -10.0130 127.915 main 175 175 P_____P__PO___ SH231960 -10.0031 127.881 -1 -10.0543 127.927 -10.0045 127.984 TC -10.0000 127.900 2 8 222
1960112S09129 1960 19 SI WA NOT_NAMED 1960-04-21 12:00:00 TS -10.1051 127.830 main 179 179 O_____P__PP___ jtwc_sh SH231960 -10.1000 127.800 -1 -10.1403 127.840 -10.0909 127.897 TC -10.0940 127.815 2 7 223
1960112S09129 1960 19 SI WA NOT_NAMED 1960-04-21 15:00:00 TS -10.3640 127.578 main 197 191 P_____P__PP___ SH231960 -10.3575 127.542 -1 -10.3893 127.591 -10.3422 127.645 TC -10.3738 127.568 2 7 224
1960112S09129 1960 19 SI WA NOT_NAMED 1960-04-21 18:00:00 TS -10.6079 127.342 main 199 199 O_____P__PP___ jtwc_sh SH231960 -10.6000 127.300 -1 -10.6227 127.360 -10.5793 127.409 TC -10.6377 127.338 2 7 222
1960112S09129 1960 19 SI WA NOT_NAMED 1960-04-21 21:00:00 TS -10.8504 127.129 main 222 219 P_____P__PP___ SH231960 -10.8725 127.085 -1 -10.8374 127.153 -10.7995 127.193 TC -10.8702 127.128 2 6 221
1960112S09129 1960 19 SI WA NOT_NAMED 1960-04-21 23:00:00 TS -10.9944 127.001 main 230 230 P_____P__PO___ SH231960 -11.0338 126.958 -1 -10.9688 127.029 -10.9355 127.062 TC -11.0000 127.000 2 6 221
1960112S09129 1960 19 SI WA NOT_NAMED 1960-04-21 23:30:00 TS -11.0264 126.971 990 bom main 230 230 P_____O__PP___ SH231960 -11.0684 126.929 -1 -11.0000 127.000 990 -10.9681 127.030 TC -11.0269 126.968 2 5 218
1960112S09129 1960 19 SI WA NOT_NAMED 1960-04-22 00:00:00 TS -11.0566 126.942 main 239 237 O_____P__OP___ jtwc_sh SH231960 -11.1000 126.900 -1 -11.0306 126.972 -11.0000 127.000 TC 45 990 -11.0522 126.937 2 4 227
1960112S09129 1960 19 SI WA NOT_NAMED 1960-04-22 03:00:00 TS -11.2030 126.777 main 248 247 P_____P__PP___ SH231960 -11.2300 126.735 -1 -11.2010 126.819 -11.1790 126.832 TC -11.1752 126.765 2 4 230
1960112S09129 1960 19 SI WA NOT_NAMED 1960-04-22 06:00:00 TS -11.3108 126.637 main 257 257 O_____P__PP___ jtwc_sh SH231960 -11.3000 126.600 -1 -11.3512 126.687 -11.3379 126.686 TC -11.2650 126.614 2 3 232
1960112S09129 1960 19 SI WA NOT_NAMED 1960-04-22 09:00:00 TS -11.3985 126.519 main 258 258 P_____P__PP___ SH231960 -11.3425 126.492 -1 -11.4848 126.571 -11.4792 126.556 TC -11.3433 126.481 2 3 232
1960112S09129 1960 19 SI WA NOT_NAMED 1960-04-22 11:00:00 TS -11.4560 126.447 main 258 258 P_____P__PO___ SH231960 -11.3745 126.431 -1 -11.5661 126.498 -11.5646 126.477 TC -11.4000 126.400 1 3 228
1960112S09129 1960 19 SI WA NOT_NAMED 1960-04-22 12:00:00 TS -11.4894 126.414 main 258 252 O_____P__PP___ jtwc_sh SH231960 -11.4000 126.400 -1 -11.6049 126.463 -11.6050 126.439 TC -11.4370 126.367 1 3 218
1960112S09129 1960 19 SI WA NOT_NAMED 1960-04-22 15:00:00 TS -11.6141 126.317 main 254 244 P_____P__PP___ SH231960 -11.5425 126.308 -1 -11.7148 126.356 -11.7177 126.330 TC -11.5532 126.283 1 3 218
1960112S09129 1960 19 SI WA NOT_NAMED 1960-04-22 18:00:00 TS -11.7429 126.214 main 247 236 O_____P__PP___ jtwc_sh SH231960 -11.7000 126.200 -1 -11.8179 126.243 -11.8196 126.224 TC -11.6769 126.201 1 3 223
1960112S09129 1960 19 SI WA NOT_NAMED 1960-04-22 21:00:00 TS -11.8447 126.095 main 240 229 P_____P__PP___ SH231960 -11.7925 126.072 -1 -11.9174 126.119 -11.9129 126.115 TC -11.8082 126.096 1 3 232
1960112S09129 1960 19 SI WA NOT_NAMED 1960-04-22 23:00:00 TS -11.9111 125.996 main 234 234 P_____P__PO___ SH231960 -11.8579 125.964 -1 -11.9834 126.025 -11.9715 126.039 TC -11.9000 126.000 1 4 236
1960112S09129 1960 19 SI WA NOT_NAMED 1960-04-22 23:30:00 TS -11.9273 125.966 1000 bom main 234 234 P_____O__PP___ SH231960 -11.8778 125.933 -1 -12.0000 126.000 1000 -11.9858 126.020 TC -11.9244 125.969 1 4 244
1960112S09129 1960 19 SI WA NOT_NAMED 1960-04-23 00:00:00 TS -11.9460 125.931 main 236 215 O_____P__OP___ jtwc_sh SH231960 -11.9000 125.900 -1 -12.0213 125.968 -12.0000 126.000 TC 30 1000 -11.9491 125.937 1 5 234
1960112S09129 1960 19 SI WA NOT_NAMED 1960-04-23 03:00:00 TS -12.1131 125.702 main 217 201 P_____P__PP___ SH231960 -12.1000 125.665 -1 -12.1492 125.764 -12.1068 125.824 TC -12.1031 125.714 1 6 234
1960112S09129 1960 19 SI WA NOT_NAMED 1960-04-23 06:00:00 TS -12.2837 125.450 main 204 199 O_____P__PP___ jtwc_sh SH231960 -12.3000 125.400 -1 -12.2755 125.543 -12.2078 125.634 TC -12.2594 125.456 1 6 239
1960112S09129 1960 19 SI WA NOT_NAMED 1960-04-23 09:00:00 TS -12.4055 125.198 main 203 199 P_____P__PP___ SH231960 -12.4075 125.150 -1 -12.3981 125.310 -12.3030 125.433 TC -12.4088 125.182 1 5 245
1960112S09129 1960 19 SI WA NOT_NAMED 1960-04-23 11:00:00 TS -12.4773 125.029 main 205 205 P_____P__PO___ SH231960 -12.4662 124.983 -1 -12.4767 125.151 -12.3632 125.294 TC -12.5000 125.000 1 5 246
1960112S09129 1960 19 SI WA NOT_NAMED 1960-04-23 12:00:00 TS -12.5146 124.945 main 212 203 O_____P__PP___ jtwc_sh SH231960 -12.5000 124.900 -1 -12.5148 125.071 -12.3923 125.224 TC -12.5437 124.911 1 6 242
1960112S09129 1960 19 SI WA NOT_NAMED 1960-04-23 15:00:00 TS -12.6510 124.693 main 203 203 P_____P__PP___ SH231960 -12.6575 124.650 -1 -12.6235 124.831 -12.4756 125.010 TC -12.6655 124.640 1 6 242
1960112S09129 1960 19 SI WA NOT_NAMED 1960-04-23 18:00:00 TS -12.7731 124.443 main 212 212 O_____P__PP___ jtwc_sh SH231960 -12.8000 124.400 -1 -12.7219 124.596 -12.5530 124.793 TC -12.7705 124.377 1 5 248
1960112S09129 1960 19 SI WA NOT_NAMED 1960-04-23 21:00:00 TS -12.8484 124.191 main 226 217 P_____P__PP___ SH231960 -12.8650 124.127 -1 -12.8080 124.372 -12.6245 124.577 TC -12.8558 124.138 1 5 254
1960112S09129 1960 19 SI WA NOT_NAMED 1960-04-23 23:00:00 TS -12.8837 124.041 main 230 230 P_____P__PO___ SH231960 -12.8886 123.966 -1 -12.8575 124.231 -12.6688 124.434 TC -12.9000 124.000 1 4 256
1960112S09129 1960 19 SI WA NOT_NAMED 1960-04-24 00:00:00 TS -12.8998 123.977 main 230 230 O_____P__PP___ jtwc_sh SH231960 -12.9000 123.900 -1 -12.8797 124.165 -12.6900 124.363 TC -12.9196 123.942 1 4 254
1960112S09129 1960 19 SI WA NOT_NAMED 1960-04-24 01:00:00 TS -12.9187 123.922 1000 bom main 236 234 P_____O__PP___ SH231960 -12.9193 123.850 -1 -12.9000 124.100 1000 -12.7104 124.293 TC -12.9363 123.888 1 3 250
1960112S09129 1960 19 SI WA NOT_NAMED 1960-04-24 03:00:00 TS -12.9527 123.832 main 234 234 P_____P__PP___ SH231960 -12.9575 123.777 -1 -12.9337 123.978 -12.7494 124.156 TC -12.9623 123.794 1 3 250
1960112S09129 1960 19 SI WA NOT_NAMED 1960-04-24 06:00:00 TS -12.9893 123.721 main 241 241 O_____P__PP___ jtwc_sh SH231960 -13.0000 123.700 -1 -12.9714 123.807 -12.8030 123.957 TC -12.9860 123.675 1 2 257
1960112S09129 1960 19 SI WA NOT_NAMED 1960-04-24 09:00:00 TS -13.0019 123.609 main 248 248 P_____P__PP___ SH231960 -13.0075 123.607 -1 -12.9957 123.651 -12.8505 123.769 TC -12.9968 123.570 1 2 266
1960112S09129 1960 19 SI WA NOT_NAMED 1960-04-24 11:00:00 TS -13.0027 123.533 main 256 256 P_____P__PO___ SH231960 -13.0026 123.539 -1 -13.0056 123.555 -12.8789 123.652 TC -13.0000 123.500 1 2 269
1960112S09129 1960 19 SI WA NOT_NAMED 1960-04-24 12:00:00 TS -13.0031 123.491 main 256 256 O_____P__PP___ jtwc_sh SH231960 -13.0000 123.500 -1 -13.0090 123.510 -12.8922 123.596 TC -13.0034 123.455 1 3 269
1960112S09129 1960 19 SI WA NOT_NAMED 1960-04-24 15:00:00 TS -13.0055 123.351 main 264 264 P_____P__PP___ SH231960 -13.0000 123.350 -1 -13.0139 123.386 -12.9279 123.439 TC -13.0079 123.317 1 3 270
1960112S09129 1960 19 SI WA NOT_NAMED 1960-04-24 18:00:00 TS -13.0049 123.216 main 280 280 O_____P__PP___ jtwc_sh SH231960 -13.0000 123.200 -1 -13.0128 123.278 -12.9578 123.303 TC -13.0066 123.184 1 2 271
1960112S09129 1960 19 SI WA NOT_NAMED 1960-04-24 21:00:00 TS -13.0026 123.106 main 289 289 P_____P__PP___ SH231960 -13.0000 123.085 -1 -13.0079 123.189 -12.9818 123.189 TC -13.0026 123.066 1 2 271
1960112S09129 1960 19 SI WA NOT_NAMED 1960-04-24 23:00:00 TS -13.0010 123.048 main 296 296 P_____P__PO___ SH231960 -13.0000 123.025 -1 -13.0039 123.140 -12.9946 123.127 TC -13.0000 123.000 1 2 272
1960112S09129 1960 19 SI WA NOT_NAMED 1960-04-25 00:00:00 TS -13.0004 123.028 main 296 296 O_____P__OP___ jtwc_sh SH231960 -13.0000 123.000 -1 -13.0019 123.119 -13.0000 123.100 TC 25 1002 -13.0000 122.975 1 1 270
1960112S09129 1960 19 SI WA NOT_NAMED 1960-04-25 01:00:00 TS -13.0006 123.011 1002 bom main 296 296 P_____O__PP___ SH231960 -13.0000 122.978 -1 -13.0000 123.100 1002 -13.0058 123.083 TC -13.0000 122.952 1 1 266
1960112S09129 1960 19 SI WA NOT_NAMED 1960-04-25 03:00:00 TS -13.0030 122.981 main 296 296 P_____P__PP___ SH231960 -13.0000 122.943 -1 -13.0033 123.066 -13.0149 123.056 TC -12.9999 122.915 1 1 265
1960112S09129 1960 19 SI WA NOT_NAMED 1960-04-25 06:00:00 TS -13.0059 122.948 main 298 298 O_____P__PP___ jtwc_sh SH231960 -13.0000 122.900 -1 -13.0064 123.034 -13.0230 123.032 TC -13.0000 122.871 1 1 266
1960112S09129 1960 19 SI WA NOT_NAMED 1960-04-25 09:00:00 TS -13.0067 122.918 main 298 298 P_____P__PP___ SH231960 -13.0000 122.858 -1 -13.0077 123.021 -13.0257 123.024 TC -13.0000 122.831 1 1 269
1960112S09129 1960 19 SI WA NOT_NAMED 1960-04-25 11:00:00 TS -13.0066 122.898 main 298 298 P_____P__PO___ SH231960 -13.0000 122.822 -1 -13.0078 123.020 -13.0250 123.026 TC -13.0000 122.800 1 1 270
1960112S09129 1960 19 SI WA NOT_NAMED 1960-04-25 12:00:00 TS -13.0068 122.885 main 298 298 O_____P__PP___ jtwc_sh SH231960 -13.0000 122.800 -1 -13.0076 123.022 -13.0240 123.029 TC -13.0025 122.772 1 1 269
1960112S09129 1960 19 SI WA NOT_NAMED 1960-04-25 15:00:00 TS -13.0074 122.831 main 301 301 P_____P__PP___ SH231960 -13.0000 122.700 -1 -13.0065 123.034 -13.0194 123.043 TC -13.0109 122.681 1 1 270
1960112S09129 1960 19 SI WA NOT_NAMED 1960-04-25 18:00:00 TS -13.0067 122.781 main 301 301 O_____P__PP___ jtwc_sh SH231960 -13.0000 122.600 -1 -13.0047 123.052 -13.0130 123.061 TC -13.0160 122.592 1 1 270
1960112S09129 1960 19 SI WA NOT_NAMED 1960-04-25 21:00:00 TS -13.0070 122.747 main 303 303 P_____P__PP___ SH231960 -13.0075 122.528 -1 -13.0026 123.074 -13.0061 123.082 TC -13.0114 122.524 1 1 276
1960112S09129 1960 19 SI WA NOT_NAMED 1960-04-25 23:00:00 TS -13.0029 122.737 main 303 303 P_____P__PO___ SH231960 -13.0057 122.503 -1 -13.0012 123.088 -13.0019 123.094 TC -13.0000 122.500 1 0 0
1960112S09129 1960 19 SI WA NOT_NAMED 1960-04-26 00:00:00 TS -12.9979 122.739 main 303 303 O_____P__OP___ jtwc_sh SH231960 -13.0000 122.500 -1 -13.0006 123.094 -13.0000 123.100 TC 25 1002 -12.9888 122.500 1 0 0
1960112S09129 1960 19 SI WA NOT_NAMED 1960-04-26 01:00:00 TS -12.9904 122.744 1002 bom main 303 301 P_____O__PP___ SH231960 -12.9890 122.505 -1 -13.0000 123.100 1002 -12.9983 123.105 TC -12.9755 122.505 1 1 0
1960112S09129 1960 19 SI WA NOT_NAMED 1960-04-26 03:00:00 TS -12.9707 122.764 main 301 290 P_____P__PP___ SH231960 -12.9575 122.535 -1 -12.9990 123.110 -12.9956 123.113 TC -12.9437 122.527 1 1 47
1960112S09129 1960 19 SI WA NOT_NAMED 1960-04-26 06:00:00 TS -12.9359 122.805 main 290 290 O_____P__PP___ jtwc_sh SH231960 -12.9000 122.600 -1 -12.9981 123.120 -12.9930 123.121 TC -12.8886 122.584 1 1 51
1960112S09129 1960 19 SI WA NOT_NAMED 1960-04-26 09:00:00 TS -12.9045 122.840 main 290 287 P_____P__PP___ SH231960 -12.8500 122.650 -1 -12.9976 123.125 -12.9919 123.124 TC -12.8329 122.654 1 1 49
1960112S09129 1960 19 SI WA NOT_NAMED 1960-04-26 11:00:00 TS -12.8845 122.863 main 287 287 P_____P__PO___ SH231960 -12.8167 122.683 -1 -12.9975 123.126 -12.9918 123.124 TC -12.8000 122.700 1 1 68
1960112S09129 1960 19 SI WA NOT_NAMED 1960-04-26 12:00:00 TS -12.8834 122.894 main 287 287 O_____P__PP___ jtwc_sh SH231960 -12.8000 122.700 -1 -12.9975 123.126 -12.9920 123.124 TC -12.7858 122.722 1 1 82
1960112S09129 1960 19 SI WA NOT_NAMED 1960-04-26 15:00:00 TS -12.8732 122.943 main 287 285 P_____P__PP___ SH231960 -12.7500 122.750 -1 -12.9977 123.123 -12.9931 123.120 TC -12.7518 122.779 1 1 93
1960112S09129 1960 19 SI WA NOT_NAMED 1960-04-26 18:00:00 TS -12.8890 123.001 main 285 283 O_____P__PP___ jtwc_sh SH231960 -12.7000 122.800 -1 -12.9983 123.118 -12.9950 123.115 TC -12.7279 122.828 1 1 119
1960112S09129 1960 19 SI WA NOT_NAMED 1960-04-26 21:00:00 TS -12.9342 123.057 main 283 283 ______P__PP___ SH231960 -1 -12.9989 123.111 -12.9974 123.108 TC -12.7102 122.872 1 1 133
1960112S09129 1960 19 SI WA NOT_NAMED 1960-04-26 23:00:00 TS -12.9494 123.070 main 283 283 ______P__PO___ SH231960 -1 -12.9995 123.106 -12.9991 123.103 TC -12.7000 122.900 1 2 146
1960112S09129 1960 19 SI WA NOT_NAMED 1960-04-27 00:00:00 TS -12.9998 123.102 main 289 289 ______P__O____ -1 -12.9997 123.103 -13.0000 123.100 TC 20 1005 1 2 138
1960112S09129 1960 19 SI WA NOT_NAMED 1960-04-27 01:00:00 NR -13.0000 123.100 1005 bom main 289 ______O_______ -1 -13.0000 123.100 1005 TC 1 0 0

About IBTrACS Database

This database is a web-friendly format of International Best Track Archive for Climate Stewardship (IBTrACS), a global best track data archive curated by NOAA dating back to 1842.

Updated: 2021-11-26